Paulistana II — 00 — position and weather

sailwx.info

Track history (hours):
 
Tides and Currents Weather Stations Pressure Air Temp Water Temp Dewpoint Dewpoint Depression Visibility Wind Speed Wind Dir Waves Ship Positions

Paulistana II

Last reported at 2014-Oct-01 03:33 UTC. Time now 2014-Oct-01 04:12 UTC.
Position N 36°52' E 122°50'.

Length 6 m.

Type: Pollution control. MMSI: 316014038.

Date/timePositionNaut miles runAvg speedWind from/ knotsBaromVisibWave heightAir tempDewpointWater temp
2014-Oct-01 03:33N 36°52' E 122°50'752139.7
2014-Sep-30 22:10N 24°47' E 118°56'5 7.7
2014-Sep-30 21:33N 24°50' E 118°59'41331.6
2014-Sep-30 08:29N 31°20' E 121°33'485144.9
2014-Sep-30 05:08N 38°50' E 117°52'73231109.4
2014-Sep-29 22:32N 29°33' W 095°00'74275421.4
2014-Sep-29 21:10N 31°45' E 121°08'3 5.3
2014-Sep-29 20:34N 31°42' E 121°09'21 6.2
2014-Sep-29 17:13N 31°28' E 121°28'77112.3
2014-Sep-29 16:32N 31°58' E 120°04'80843.0
2014-Sep-29 16:26N 31°26' E 121°31'7686.1
2014-Sep-29 15:33N 31°57' E 120°09'7746007.8
2014-Sep-29 15:33N 31°23' E 121°30'0 0.3
2014-Sep-29 14:33N 31°22' E 121°30'7320189.1
2014-Sep-29 14:33N 31°57' E 120°14'5 4.8
2014-Sep-29 13:33N 31°59' E 120°19'7232490.9
2014-Sep-29 13:33N 31°21' E 121°31'7069.6
2014-Sep-29 12:33N 32°01' E 120°24'5 4.8
2014-Sep-29 11:33N 32°02' E 120°30'6 5.7
2014-Sep-29 10:33N 32°01' E 120°36'6 6.2
2014-Sep-29 09:33N 32°01' E 120°43'2214.5
2014-Sep-29 08:04N 31°58' E 120°18'2 2.8
2014-Sep-29 07:27N 31°57' E 120°20'0 0.0
2014-Sep-29 06:29N 31°57' E 120°20'0 0.0
2014-Sep-29 04:08N 31°57' E 120°20'0 0.0
2014-Sep-29 03:26N 31°57' E 120°20'0 0.0
2014-Sep-29 02:32N 31°57' E 120°20'0 0.0
2014-Sep-29 01:29N 31°57' E 120°20'0 0.0
2014-Sep-29 00:32N 31°57' E 120°20'0 0.2
2014-Sep-28 23:29N 31°57' E 120°20'54341595.4
2014-Sep-28 20:04N 48°32' W 123°01'53457435.7
2014-Sep-28 19:21N 31°43' E 122°34'50 9.9
2014-Sep-28 14:21N 30°53' E 122°29'5 6.8
2014-Sep-28 13:33N 30°51' E 122°23'7 6.8
2014-Sep-28 12:33N 30°46' E 122°17'8 7.8
2014-Sep-28 11:30N 30°38' E 122°14'126416.9
2014-Sep-28 11:12N 31°57' E 120°20'127185.3
2014-Sep-28 10:31N 30°31' E 122°09'1278315.0
2014-Sep-28 10:30N 31°57' E 120°20'0 0.4
2014-Sep-28 09:32N 31°58' E 120°20'156159.2
2014-Sep-28 08:33N 29°52' E 122°08'1568397.7
2014-Sep-28 08:32N 31°58' E 120°20'149151.4
2014-Sep-28 07:33N 29°58' E 122°03'1498784.0
2014-Sep-28 07:32N 31°58' E 120°20'130127.2
2014-Sep-28 06:30N 30°12' E 121°49'1301673.7
2014-Sep-28 06:26N 31°58' E 120°20'0 0.0
2014-Sep-28 05:32N 31°58' E 120°20'0 0.0
2014-Sep-28 04:23N 31°58' E 120°20'138838.0
2014-Sep-28 04:13N 30°02' E 121°48'5 7.1
2014-Sep-28 03:33N 29°59' E 121°45'4 4.0
2014-Sep-28 02:30N 29°56' E 121°41'1401064.6
2014-Sep-28 02:22N 31°58' E 120°20'140170.1
2014-Sep-28 01:33N 29°56' E 121°41'1405368.4
2014-Sep-28 01:31N 31°58' E 120°20'0 0.0
2014-Sep-28 00:31N 31°58' E 120°20'1409704.4
2014-Sep-28 00:30N 29°56' E 121°41'0 0.0
2014-Sep-27 23:32N 29°56' E 121°41'14016820.3
2014-Sep-27 23:31N 31°58' E 120°20'0 0.0
2014-Sep-27 22:31N 31°58' E 120°20'14072092.4
2014-Sep-27 22:31N 29°56' E 121°41'0 0.0
2014-Sep-27 21:31N 29°56' E 121°41'140940.1
2014-Sep-27 21:22N 31°58' E 120°20'140169.7
2014-Sep-27 20:33N 29°56' E 121°41'1405485.3
2014-Sep-27 20:31N 31°58' E 120°20'140145.2
2014-Sep-27 19:33N 29°56' E 121°41'1401643.7
2014-Sep-27 19:28N 31°58' E 120°20'140154.2
2014-Sep-27 18:33N 29°56' E 121°41'1401529.2
2014-Sep-27 18:28N 31°58' E 120°20'0 0.0
2014-Sep-27 17:31N 31°58' E 120°20'1401543.2
2014-Sep-27 17:25N 29°56' E 121°41'8596.2
2014-Sep-27 16:32N 31°21' E 121°38'761043.2
2014-Sep-27 16:28N 31°58' E 120°20'1401255.3
2014-Sep-27 16:21N 29°56' E 121°41'0 0.0
2014-Sep-27 15:32N 29°56' E 121°41'882447.1
2014-Sep-27 15:30N 31°24' E 121°33'711911.2
2014-Sep-27 15:28N 31°58' E 120°20'140152.2
2014-Sep-27 14:32N 29°56' E 121°41'94560.9
2014-Sep-27 14:22N 31°29' E 121°25'94114.1
2014-Sep-27 13:33N 29°56' E 121°41'140283.3
2014-Sep-27 13:03N 31°58' E 120°20'140280.5
2014-Sep-27 12:33N 29°56' E 121°41'140252304.8
2014-Sep-27 12:33N 31°58' E 120°20'46619.6
2014-Sep-27 12:29N 31°41' E 121°10'4649.8
2014-Sep-27 11:33N 31°58' E 120°20'1406639.8
2014-Sep-27 11:32N 29°56' E 121°41'1151339.1
2014-Sep-27 11:27N 31°46' E 121°01'3741.1
2014-Sep-27 10:33N 31°58' E 120°20'1401219.0
2014-Sep-27 10:26N 29°56' E 121°41'140135.4
2014-Sep-27 09:24N 31°58' E 120°20'0 0.0
2014-Sep-27 08:33N 31°58' E 120°20'140131.0
2014-Sep-27 07:29N 29°56' E 121°41'1401740.0
2014-Sep-27 07:24N 31°58' E 120°20'1058.5
2014-Sep-27 07:14N 31°57' E 120°08'1015.5
2014-Sep-27 06:33N 31°58' E 120°20'14018022.4
2014-Sep-27 06:33N 29°56' E 121°41'1456787.2
2014-Sep-27 06:32N 31°57' E 120°08'1010.7
2014-Sep-27 05:33N 31°58' E 120°20'1058.2
2014-Sep-27 05:23N 31°57' E 120°08'1012.7
2014-Sep-27 04:33N 31°58' E 120°20'733816.6
2014-Sep-27 04:32N 31°15' E 121°29'85307.9
2014-Sep-27 04:15N 31°57' E 120°03'1520.8
2014-Sep-27 03:33N 31°58' E 120°20'14012939.7
2014-Sep-27 03:33N 29°56' E 121°41'84253.0
2014-Sep-27 03:13N 31°20' E 121°33'73111.0
2014-Sep-27 02:33N 31°58' E 120°20'7031561.4
2014-Sep-27 02:33N 31°21' E 121°30'7070.3
2014-Sep-27 01:33N 31°58' E 120°20'14013279.7
2014-Sep-27 01:33N 29°56' E 121°41'881062.1
2014-Sep-27 01:28N 31°24' E 121°31'7076.7
2014-Sep-27 00:33N 31°58' E 120°20'1403974.0
2014-Sep-27 00:31N 29°56' E 121°41'140145.2
2014-Sep-26 23:33N 31°58' E 120°20'1401106.6
2014-Sep-26 23:26N 29°59' E 121°45'140159.9
2014-Sep-26 22:33N 31°58' E 120°20'144518016.7
2014-Sep-26 22:33N 29°57' E 121°52'7 7.4
2014-Sep-26 21:33N 29°59' E 122°00'14711274.6
2014-Sep-26 21:33N 31°58' E 120°20'6126315063.4
2014-Sep-26 21:31N 33°44' W 118°09'61204386.0
2014-Sep-26 20:08N 32°01' E 120°25'74561917.0
2014-Sep-26 16:14N 29°33' W 094°58'74329725.4
2014-Sep-26 15:28N 31°45' E 121°04'26 5.2
2014-Sep-26 10:25N 31°60' E 120°39'4 5.0
2014-Sep-26 09:33N 32°00' E 120°34'3 0.5
2014-Sep-26 03:32N 32°01' E 120°31'3 2.8
2014-Sep-26 02:33N 32°02' E 120°27'6 5.9
2014-Sep-26 01:33N 31°59' E 120°21'7 6.5
2014-Sep-26 00:32N 31°56' E 120°15'615120389.4
2014-Sep-26 00:14N 33°35' W 117°53'7 9.7
2014-Sep-25 23:32N 33°30' W 117°47'8 7.6
2014-Sep-25 22:29N 33°25' W 117°40'3 3.5
2014-Sep-25 21:33N 33°28' W 117°42'12 8.8
2014-Sep-25 20:14N 33°35' W 117°52'61061215.5
2014-Sep-25 15:12N 31°19' E 121°33'4 5.8
2014-Sep-25 14:33N 31°21' E 121°30'4 4.3
2014-Sep-25 13:33N 31°26' E 121°29'8 7.1
2014-Sep-25 12:22N 31°31' E 121°22'17 7.3
2014-Sep-25 10:06N 31°42' E 121°08'5027.3
2014-Sep-25 08:18N 31°57' E 120°12'5 6.1
2014-Sep-25 07:31N 31°58' E 120°17'6 5.9
2014-Sep-25 06:33N 31°58' E 120°24'146147.2
2014-Sep-25 05:33N 29°60' E 122°02'145173746.3
2014-Sep-25 05:33N 31°58' E 120°26'0 0.0
2014-Sep-25 04:33N 31°58' E 120°26'13983486.3
2014-Sep-25 04:33N 30°03' E 121°56'139139.8
2014-Sep-25 03:33N 31°58' E 120°26'1291372.1
2014-Sep-25 03:28N 30°12' E 121°51'72505.5
2014-Sep-25 03:19N 31°21' E 121°27'6483.1
2014-Sep-25 02:33N 31°58' E 120°26'652133.6
2014-Sep-25 02:31N 31°23' E 121°30'6567.5
2014-Sep-25 01:33N 31°58' E 120°26'1248905.8
2014-Sep-25 01:32N 30°16' E 121°47'124125.6
2014-Sep-25 00:33N 31°58' E 120°26'1244789.4
2014-Sep-25 00:32N 30°16' E 121°47'1411964.7
2014-Sep-25 00:28N 32°01' E 119°58'2420.2
2014-Sep-24 23:17N 31°58' E 120°26'0 0.0
2014-Sep-24 22:33N 31°58' E 120°26'1242821.3
2014-Sep-24 22:31N 30°16' E 121°47'6128355836.3
2014-Sep-24 22:30N 33°37' W 117°55'61376550.1
2014-Sep-24 21:33N 31°58' E 120°26'12489170.9
2014-Sep-24 21:33N 30°16' E 121°47'1452417.0
2014-Sep-24 21:30N 32°05' E 119°56'17142.0
2014-Sep-24 21:23N 31°57' E 120°13'5 5.8
2014-Sep-24 20:33N 31°58' E 120°18'611653.7
2014-Sep-24 20:33N 31°58' E 120°26'1243279.4
2014-Sep-24 20:31N 30°16' E 121°47'612835756.6
2014-Sep-24 20:21N 33°37' W 117°55'61287757.3
2014-Sep-24 19:33N 30°16' E 121°47'126227491.7
2014-Sep-24 19:33N 32°01' E 120°25'31186.6
2014-Sep-24 19:33N 31°58' E 120°26'3482.5
2014-Sep-24 19:09N 31°46' E 121°03'3457.6
2014-Sep-24 18:34N 31°58' E 120°26'62562.4
2014-Sep-24 18:33N 32°02' E 120°32'12463535.3
2014-Sep-24 18:33N 30°16' E 121°47'943022.5
2014-Sep-24 18:31N 31°44' E 121°07'6092122524.5
2014-Sep-24 18:28N 33°46' W 118°11'6128817062.3
2014-Sep-24 18:28N 31°57' E 120°15'61316749.5
2014-Sep-24 17:33N 33°44' W 118°09'61227345846.0
2014-Sep-24 17:33N 31°58' E 120°26'131435.5
2014-Sep-24 17:33N 32°00' E 120°40'1881.5
2014-Sep-24 17:20N 31°58' E 120°20'5 6.1
2014-Sep-24 16:33N 31°58' E 120°26'565.1
2014-Sep-24 16:29N 31°58' E 120°20'5 5.1
2014-Sep-24 15:33N 31°58' E 120°26'61192753672.2
2014-Sep-24 15:33N 33°45' W 118°10'61105499363.1
2014-Sep-24 15:33N 30°16' E 121°47'7115999.9
2014-Sep-24 15:33N 31°26' E 121°30'68405.7
2014-Sep-24 15:23N 31°58' E 120°20'5 5.7
2014-Sep-24 14:33N 31°58' E 120°26'12423404.3
2014-Sep-24 14:33N 30°16' E 121°47'1267328.6
2014-Sep-24 14:32N 31°58' E 120°20'126129.2
2014-Sep-24 13:33N 30°16' E 121°47'124444682.1
2014-Sep-24 13:33N 31°58' E 120°26'19249.3
2014-Sep-24 13:29N 32°01' E 120°48'1920.4
2014-Sep-24 12:33N 31°58' E 120°26'124111179.5
2014-Sep-24 12:33N 30°16' E 121°47'124121.9
2014-Sep-24 11:32N 31°58' E 120°26'1242097.6
2014-Sep-24 11:29N 30°16' E 121°47'124133.6
2014-Sep-24 10:33N 31°58' E 120°26'0 0.0
2014-Sep-24 09:32N 31°58' E 120°26'1213076.4
2014-Sep-24 09:30N 30°28' E 122°01'121126.1
2014-Sep-24 08:32N 31°58' E 120°26'1231983.0
2014-Sep-24 08:29N 30°32' E 122°08'123132.6
2014-Sep-24 07:33N 31°58' E 120°26'1225759.0
2014-Sep-24 07:32N 30°38' E 122°13'10 9.9
2014-Sep-24 06:31N 30°48' E 122°17'1181201.6
2014-Sep-24 06:25N 31°58' E 120°26'3943.5
2014-Sep-24 05:32N 31°44' E 121°08'8 7.6
2014-Sep-24 04:28N 31°38' E 121°15'4750.7
2014-Sep-24 03:33N 31°58' E 120°26'55128.3
2014-Sep-24 03:07N 31°32' E 121°23'5597.8
2014-Sep-24 02:33N 31°58' E 120°26'591463.4
2014-Sep-24 02:30N 31°30' E 121°26'5962.2
2014-Sep-24 01:33N 31°58' E 120°26'64711.3
2014-Sep-24 01:28N 31°26' E 121°31'12477.1
2014-Sep-24 01:27N 31°19' E 121°42'7685.1
2014-Sep-24 00:33N 31°58' E 120°26'6647537.5
2014-Sep-24 00:33N 31°25' E 121°33'1142.7
2014-Sep-24 00:33N 31°24' E 121°32'1 0.7
2014-Sep-23 23:33N 31°25' E 121°33'864857.1
2014-Sep-23 23:32N 30°02' E 121°59'9611160.0
2014-Sep-23 23:32N 31°32' E 121°21'1414.4
2014-Sep-23 22:33N 31°21' E 121°31'28270.9
2014-Sep-23 22:27N 31°42' E 121°09'1169528.4
2014-Sep-23 22:26N 29°56' E 122°06'125140.6
2014-Sep-23 21:33N 31°47' E 120°58'1111.2
2014-Sep-23 20:33N 31°57' E 120°52'10 9.7
2014-Sep-23 19:33N 32°00' E 120°41'10 9.7
2014-Sep-23 18:33N 32°02' E 120°30'9 9.4
2014-Sep-23 17:33N 31°58' E 120°20'542019397.0
2014-Sep-23 17:17N 49°17' W 122°51'54327481.0
2014-Sep-23 16:33N 31°57' E 120°05'1312.9
2014-Sep-23 15:33N 32°06' E 119°55'5446120.9
2014-Sep-21 18:30N 48°32' W 123°01'0 0.2
2014-Sep-21 17:30N 48°33' W 123°01'0 0.0
2014-Sep-21 16:33N 48°33' W 123°01'0 0.0
2014-Sep-21 15:33N 48°33' W 123°01'0 0.0
2014-Sep-21 14:33N 48°33' W 123°01'0 0.0
2014-Sep-21 13:33N 48°33' W 123°01'0 0.0
2014-Sep-21 12:33N 48°33' W 123°01'0 0.0
2014-Sep-21 11:33N 48°33' W 123°01'543423538.8
2014-Sep-21 11:19N 31°58' E 120°20'5 6.2
2014-Sep-21 10:33N 31°58' E 120°26'54293909025.7
2014-Sep-21 10:33N 48°33' W 123°01'5435501657.9
2014-Sep-21 10:33N 31°57' E 120°19'6 5.7
2014-Sep-21 09:33N 31°58' E 120°26'542936946.2
2014-Sep-21 09:24N 48°33' W 123°01'54286404.7
2014-Sep-21 08:33N 31°59' E 120°26'542853244.3
2014-Sep-21 08:27N 48°33' W 123°01'0 0.0
2014-Sep-21 07:33N 48°33' W 123°01'542819540296.3
2014-Sep-21 07:33N 31°59' E 120°26'0 0.1
2014-Sep-21 06:33N 31°59' E 120°26'542853389.8
2014-Sep-21 06:27N 48°33' W 123°01'54285921.3
2014-Sep-21 05:32N 31°59' E 120°26'5428164204.3
2014-Sep-21 05:30N 48°33' W 123°01'5410113239.2
2014-Sep-21 05:27N 31°42' E 121°09'54105996.7
2014-Sep-21 04:33N 48°33' W 123°01'54281954018.0
2014-Sep-21 04:33N 31°59' E 120°27'37251.4
2014-Sep-21 04:24N 31°44' E 121°06'54116361.6
2014-Sep-21 03:33N 48°33' W 123°01'542819539900.5
2014-Sep-21 03:33N 31°59' E 120°27'  
Track history (hours):
 
Tides and Currents Weather Stations Pressure Air Temp Water Temp Dewpoint Dewpoint Depression Visibility Wind Speed Wind Dir Waves Ship Positions

Paulistana II

Last reported at 2014-Oct-01 03:33 UTC. Time now 2014-Oct-01 04:12 UTC.
Position N 36°52' E 122°50'.

Length 6 m.

Type: Pollution control. MMSI: 316014038.

Date/timePositionNaut miles runAvg speedWind from/ knotsBaromVisibWave heightAir tempDewpointWater temp
2014-Oct-01 03:33N 36°52' E 122°50'752139.7
2014-Sep-30 22:10N 24°47' E 118°56'5 7.7
2014-Sep-30 21:33N 24°50' E 118°59'41331.6
2014-Sep-30 08:29N 31°20' E 121°33'485144.9
2014-Sep-30 05:08N 38°50' E 117°52'73231109.4
2014-Sep-29 22:32N 29°33' W 095°00'74275421.4
2014-Sep-29 21:10N 31°45' E 121°08'3 5.3
2014-Sep-29 20:34N 31°42' E 121°09'21 6.2
2014-Sep-29 17:13N 31°28' E 121°28'77112.3
2014-Sep-29 16:32N 31°58' E 120°04'80843.0
2014-Sep-29 16:26N 31°26' E 121°31'7686.1
2014-Sep-29 15:33N 31°57' E 120°09'7746007.8
2014-Sep-29 15:33N 31°23' E 121°30'0 0.3
2014-Sep-29 14:33N 31°22' E 121°30'7320189.1
2014-Sep-29 14:33N 31°57' E 120°14'5 4.8
2014-Sep-29 13:33N 31°59' E 120°19'7232490.9
2014-Sep-29 13:33N 31°21' E 121°31'7069.6
2014-Sep-29 12:33N 32°01' E 120°24'5 4.8
2014-Sep-29 11:33N 32°02' E 120°30'6 5.7
2014-Sep-29 10:33N 32°01' E 120°36'6 6.2
2014-Sep-29 09:33N 32°01' E 120°43'2214.5
2014-Sep-29 08:04N 31°58' E 120°18'2 2.8
2014-Sep-29 07:27N 31°57' E 120°20'0 0.0
2014-Sep-29 06:29N 31°57' E 120°20'0 0.0
2014-Sep-29 04:08N 31°57' E 120°20'0 0.0
2014-Sep-29 03:26N 31°57' E 120°20'0 0.0
2014-Sep-29 02:32N 31°57' E 120°20'0 0.0
2014-Sep-29 01:29N 31°57' E 120°20'0 0.0
2014-Sep-29 00:32N 31°57' E 120°20'0 0.2
2014-Sep-28 23:29N 31°57' E 120°20'54341595.4
2014-Sep-28 20:04N 48°32' W 123°01'53457435.7
2014-Sep-28 19:21N 31°43' E 122°34'50 9.9
2014-Sep-28 14:21N 30°53' E 122°29'5 6.8
2014-Sep-28 13:33N 30°51' E 122°23'7 6.8
2014-Sep-28 12:33N 30°46' E 122°17'8 7.8
2014-Sep-28 11:30N 30°38' E 122°14'126416.9
2014-Sep-28 11:12N 31°57' E 120°20'127185.3
2014-Sep-28 10:31N 30°31' E 122°09'1278315.0
2014-Sep-28 10:30N 31°57' E 120°20'0 0.4
2014-Sep-28 09:32N 31°58' E 120°20'156159.2
2014-Sep-28 08:33N 29°52' E 122°08'1568397.7
2014-Sep-28 08:32N 31°58' E 120°20'149151.4
2014-Sep-28 07:33N 29°58' E 122°03'1498784.0
2014-Sep-28 07:32N 31°58' E 120°20'130127.2
2014-Sep-28 06:30N 30°12' E 121°49'1301673.7
2014-Sep-28 06:26N 31°58' E 120°20'0 0.0
2014-Sep-28 05:32N 31°58' E 120°20'0 0.0
2014-Sep-28 04:23N 31°58' E 120°20'138838.0
2014-Sep-28 04:13N 30°02' E 121°48'5 7.1
2014-Sep-28 03:33N 29°59' E 121°45'4 4.0
2014-Sep-28 02:30N 29°56' E 121°41'1401064.6
2014-Sep-28 02:22N 31°58' E 120°20'140170.1
2014-Sep-28 01:33N 29°56' E 121°41'1405368.4
2014-Sep-28 01:31N 31°58' E 120°20'0 0.0
2014-Sep-28 00:31N 31°58' E 120°20'1409704.4
2014-Sep-28 00:30N 29°56' E 121°41'0 0.0
2014-Sep-27 23:32N 29°56' E 121°41'14016820.3
2014-Sep-27 23:31N 31°58' E 120°20'0 0.0
2014-Sep-27 22:31N 31°58' E 120°20'14072092.4
2014-Sep-27 22:31N 29°56' E 121°41'0 0.0
2014-Sep-27 21:31N 29°56' E 121°41'140940.1
2014-Sep-27 21:22N 31°58' E 120°20'140169.7
2014-Sep-27 20:33N 29°56' E 121°41'1405485.3
2014-Sep-27 20:31N 31°58' E 120°20'140145.2
2014-Sep-27 19:33N 29°56' E 121°41'1401643.7
2014-Sep-27 19:28N 31°58' E 120°20'140154.2
2014-Sep-27 18:33N 29°56' E 121°41'1401529.2
2014-Sep-27 18:28N 31°58' E 120°20'0 0.0
2014-Sep-27 17:31N 31°58' E 120°20'1401543.2
2014-Sep-27 17:25N 29°56' E 121°41'8596.2
2014-Sep-27 16:32N 31°21' E 121°38'761043.2
2014-Sep-27 16:28N 31°58' E 120°20'1401255.3
2014-Sep-27 16:21N 29°56' E 121°41'0 0.0
2014-Sep-27 15:32N 29°56' E 121°41'882447.1
2014-Sep-27 15:30N 31°24' E 121°33'711911.2
2014-Sep-27 15:28N 31°58' E 120°20'140152.2
2014-Sep-27 14:32N 29°56' E 121°41'94560.9
2014-Sep-27 14:22N 31°29' E 121°25'94114.1
2014-Sep-27 13:33N 29°56' E 121°41'140283.3
2014-Sep-27 13:03N 31°58' E 120°20'140280.5
2014-Sep-27 12:33N 29°56' E 121°41'140252304.8
2014-Sep-27 12:33N 31°58' E 120°20'46619.6
2014-Sep-27 12:29N 31°41' E 121°10'4649.8
2014-Sep-27 11:33N 31°58' E 120°20'1406639.8
2014-Sep-27 11:32N 29°56' E 121°41'1151339.1
2014-Sep-27 11:27N 31°46' E 121°01'3741.1
2014-Sep-27 10:33N 31°58' E 120°20'1401219.0
2014-Sep-27 10:26N 29°56' E 121°41'140135.4
2014-Sep-27 09:24N 31°58' E 120°20'0 0.0
2014-Sep-27 08:33N 31°58' E 120°20'140131.0
2014-Sep-27 07:29N 29°56' E 121°41'1401740.0
2014-Sep-27 07:24N 31°58' E 120°20'1058.5
2014-Sep-27 07:14N 31°57' E 120°08'1015.5
2014-Sep-27 06:33N 31°58' E 120°20'14018022.4
2014-Sep-27 06:33N 29°56' E 121°41'1456787.2
2014-Sep-27 06:32N 31°57' E 120°08'1010.7
2014-Sep-27 05:33N 31°58' E 120°20'1058.2
2014-Sep-27 05:23N 31°57' E 120°08'1012.7
2014-Sep-27 04:33N 31°58' E 120°20'733816.6
2014-Sep-27 04:32N 31°15' E 121°29'85307.9
2014-Sep-27 04:15N 31°57' E 120°03'1520.8
2014-Sep-27 03:33N 31°58' E 120°20'14012939.7
2014-Sep-27 03:33N 29°56' E 121°41'84253.0
2014-Sep-27 03:13N 31°20' E 121°33'73111.0
2014-Sep-27 02:33N 31°58' E 120°20'7031561.4
2014-Sep-27 02:33N 31°21' E 121°30'7070.3
2014-Sep-27 01:33N 31°58' E 120°20'14013279.7
2014-Sep-27 01:33N 29°56' E 121°41'881062.1
2014-Sep-27 01:28N 31°24' E 121°31'7076.7
2014-Sep-27 00:33N 31°58' E 120°20'1403974.0
2014-Sep-27 00:31N 29°56' E 121°41'140145.2
2014-Sep-26 23:33N 31°58' E 120°20'1401106.6
2014-Sep-26 23:26N 29°59' E 121°45'140159.9
2014-Sep-26 22:33N 31°58' E 120°20'144518016.7
2014-Sep-26 22:33N 29°57' E 121°52'7 7.4
2014-Sep-26 21:33N 29°59' E 122°00'14711274.6
2014-Sep-26 21:33N 31°58' E 120°20'6126315063.4
2014-Sep-26 21:31N 33°44' W 118°09'61204386.0
2014-Sep-26 20:08N 32°01' E 120°25'74561917.0
2014-Sep-26 16:14N 29°33' W 094°58'74329725.4
2014-Sep-26 15:28N 31°45' E 121°04'26 5.2
2014-Sep-26 10:25N 31°60' E 120°39'4 5.0
2014-Sep-26 09:33N 32°00' E 120°34'3 0.5
2014-Sep-26 03:32N 32°01' E 120°31'3 2.8
2014-Sep-26 02:33N 32°02' E 120°27'6 5.9
2014-Sep-26 01:33N 31°59' E 120°21'7 6.5
2014-Sep-26 00:32N 31°56' E 120°15'615120389.4
2014-Sep-26 00:14N 33°35' W 117°53'7 9.7
2014-Sep-25 23:32N 33°30' W 117°47'8 7.6
2014-Sep-25 22:29N 33°25' W 117°40'3 3.5
2014-Sep-25 21:33N 33°28' W 117°42'12 8.8
2014-Sep-25 20:14N 33°35' W 117°52'61061215.5
2014-Sep-25 15:12N 31°19' E 121°33'4 5.8
2014-Sep-25 14:33N 31°21' E 121°30'4 4.3
2014-Sep-25 13:33N 31°26' E 121°29'8 7.1
2014-Sep-25 12:22N 31°31' E 121°22'17 7.3
2014-Sep-25 10:06N 31°42' E 121°08'5027.3
2014-Sep-25 08:18N 31°57' E 120°12'5 6.1
2014-Sep-25 07:31N 31°58' E 120°17'6 5.9
2014-Sep-25 06:33N 31°58' E 120°24'146147.2
2014-Sep-25 05:33N 29°60' E 122°02'145173746.3
2014-Sep-25 05:33N 31°58' E 120°26'0 0.0
2014-Sep-25 04:33N 31°58' E 120°26'13983486.3
2014-Sep-25 04:33N 30°03' E 121°56'139139.8
2014-Sep-25 03:33N 31°58' E 120°26'1291372.1
2014-Sep-25 03:28N 30°12' E 121°51'72505.5
2014-Sep-25 03:19N 31°21' E 121°27'6483.1
2014-Sep-25 02:33N 31°58' E 120°26'652133.6
2014-Sep-25 02:31N 31°23' E 121°30'6567.5
2014-Sep-25 01:33N 31°58' E 120°26'1248905.8
2014-Sep-25 01:32N 30°16' E 121°47'124125.6
2014-Sep-25 00:33N 31°58' E 120°26'1244789.4
2014-Sep-25 00:32N 30°16' E 121°47'1411964.7
2014-Sep-25 00:28N 32°01' E 119°58'2420.2
2014-Sep-24 23:17N 31°58' E 120°26'0 0.0
2014-Sep-24 22:33N 31°58' E 120°26'1242821.3
2014-Sep-24 22:31N 30°16' E 121°47'6128355836.3
2014-Sep-24 22:30N 33°37' W 117°55'61376550.1
2014-Sep-24 21:33N 31°58' E 120°26'12489170.9
2014-Sep-24 21:33N 30°16' E 121°47'1452417.0
2014-Sep-24 21:30N 32°05' E 119°56'17142.0
2014-Sep-24 21:23N 31°57' E 120°13'5 5.8
2014-Sep-24 20:33N 31°58' E 120°18'611653.7
2014-Sep-24 20:33N 31°58' E 120°26'1243279.4
2014-Sep-24 20:31N 30°16' E 121°47'612835756.6
2014-Sep-24 20:21N 33°37' W 117°55'61287757.3
2014-Sep-24 19:33N 30°16' E 121°47'126227491.7
2014-Sep-24 19:33N 32°01' E 120°25'31186.6
2014-Sep-24 19:33N 31°58' E 120°26'3482.5
2014-Sep-24 19:09N 31°46' E 121°03'3457.6
2014-Sep-24 18:34N 31°58' E 120°26'62562.4
2014-Sep-24 18:33N 32°02' E 120°32'12463535.3
2014-Sep-24 18:33N 30°16' E 121°47'943022.5
2014-Sep-24 18:31N 31°44' E 121°07'6092122524.5
2014-Sep-24 18:28N 33°46' W 118°11'6128817062.3
2014-Sep-24 18:28N 31°57' E 120°15'61316749.5
2014-Sep-24 17:33N 33°44' W 118°09'61227345846.0
2014-Sep-24 17:33N 31°58' E 120°26'131435.5
2014-Sep-24 17:33N 32°00' E 120°40'1881.5
2014-Sep-24 17:20N 31°58' E 120°20'5 6.1
2014-Sep-24 16:33N 31°58' E 120°26'565.1
2014-Sep-24 16:29N 31°58' E 120°20'5 5.1
2014-Sep-24 15:33N 31°58' E 120°26'61192753672.2
2014-Sep-24 15:33N 33°45' W 118°10'61105499363.1
2014-Sep-24 15:33N 30°16' E 121°47'7115999.9
2014-Sep-24 15:33N 31°26' E 121°30'68405.7
2014-Sep-24 15:23N 31°58' E 120°20'5 5.7
2014-Sep-24 14:33N 31°58' E 120°26'12423404.3
2014-Sep-24 14:33N 30°16' E 121°47'1267328.6
2014-Sep-24 14:32N 31°58' E 120°20'126129.2
2014-Sep-24 13:33N 30°16' E 121°47'124444682.1
2014-Sep-24 13:33N 31°58' E 120°26'19249.3
2014-Sep-24 13:29N 32°01' E 120°48'1920.4
2014-Sep-24 12:33N 31°58' E 120°26'124111179.5
2014-Sep-24 12:33N 30°16' E 121°47'124121.9
2014-Sep-24 11:32N 31°58' E 120°26'1242097.6
2014-Sep-24 11:29N 30°16' E 121°47'124133.6
2014-Sep-24 10:33N 31°58' E 120°26'0 0.0
2014-Sep-24 09:32N 31°58' E 120°26'1213076.4
2014-Sep-24 09:30N 30°28' E 122°01'121126.1
2014-Sep-24 08:32N 31°58' E 120°26'1231983.0
2014-Sep-24 08:29N 30°32' E 122°08'123132.6
2014-Sep-24 07:33N 31°58' E 120°26'1225759.0
2014-Sep-24 07:32N 30°38' E 122°13'10 9.9
2014-Sep-24 06:31N 30°48' E 122°17'1181201.6
2014-Sep-24 06:25N 31°58' E 120°26'3943.5
2014-Sep-24 05:32N 31°44' E 121°08'8 7.6
2014-Sep-24 04:28N 31°38' E 121°15'4750.7
2014-Sep-24 03:33N 31°58' E 120°26'55128.3
2014-Sep-24 03:07N 31°32' E 121°23'5597.8
2014-Sep-24 02:33N 31°58' E 120°26'591463.4
2014-Sep-24 02:30N 31°30' E 121°26'5962.2
2014-Sep-24 01:33N 31°58' E 120°26'64711.3
2014-Sep-24 01:28N 31°26' E 121°31'12477.1
2014-Sep-24 01:27N 31°19' E 121°42'7685.1
2014-Sep-24 00:33N 31°58' E 120°26'6647537.5
2014-Sep-24 00:33N 31°25' E 121°33'1142.7
2014-Sep-24 00:33N 31°24' E 121°32'1 0.7
2014-Sep-23 23:33N 31°25' E 121°33'864857.1
2014-Sep-23 23:32N 30°02' E 121°59'9611160.0
2014-Sep-23 23:32N 31°32' E 121°21'1414.4
2014-Sep-23 22:33N 31°21' E 121°31'28270.9
2014-Sep-23 22:27N 31°42' E 121°09'1169528.4
2014-Sep-23 22:26N 29°56' E 122°06'125140.6
2014-Sep-23 21:33N 31°47' E 120°58'1111.2
2014-Sep-23 20:33N 31°57' E 120°52'10 9.7
2014-Sep-23 19:33N 32°00' E 120°41'10 9.7
2014-Sep-23 18:33N 32°02' E 120°30'9 9.4
2014-Sep-23 17:33N 31°58' E 120°20'542019397.0
2014-Sep-23 17:17N 49°17' W 122°51'54327481.0
2014-Sep-23 16:33N 31°57' E 120°05'1312.9
2014-Sep-23 15:33N 32°06' E 119°55'5446120.9
2014-Sep-21 18:30N 48°32' W 123°01'0 0.2
2014-Sep-21 17:30N 48°33' W 123°01'0 0.0
2014-Sep-21 16:33N 48°33' W 123°01'0 0.0
2014-Sep-21 15:33N 48°33' W 123°01'0 0.0
2014-Sep-21 14:33N 48°33' W 123°01'0 0.0
2014-Sep-21 13:33N 48°33' W 123°01'0 0.0
2014-Sep-21 12:33N 48°33' W 123°01'0 0.0
2014-Sep-21 11:33N 48°33' W 123°01'543423538.8
2014-Sep-21 11:19N 31°58' E 120°20'5 6.2
2014-Sep-21 10:33N 31°58' E 120°26'54293909025.7
2014-Sep-21 10:33N 48°33' W 123°01'5435501657.9
2014-Sep-21 10:33N 31°57' E 120°19'6 5.7
2014-Sep-21 09:33N 31°58' E 120°26'542936946.2
2014-Sep-21 09:24N 48°33' W 123°01'54286404.7
2014-Sep-21 08:33N 31°59' E 120°26'542853244.3
2014-Sep-21 08:27N 48°33' W 123°01'0 0.0
2014-Sep-21 07:33N 48°33' W 123°01'542819540296.3
2014-Sep-21 07:33N 31°59' E 120°26'0 0.1
2014-Sep-21 06:33N 31°59' E 120°26'542853389.8
2014-Sep-21 06:27N 48°33' W 123°01'54285921.3
2014-Sep-21 05:32N 31°59' E 120°26'5428164204.3
2014-Sep-21 05:30N 48°33' W 123°01'5410113239.2
2014-Sep-21 05:27N 31°42' E 121°09'54105996.7
2014-Sep-21 04:33N 48°33' W 123°01'54281954018.0
2014-Sep-21 04:33N 31°59' E 120°27'37251.4
2014-Sep-21 04:24N 31°44' E 121°06'54116361.6
2014-Sep-21 03:33N 48°33' W 123°01'542819539900.5
2014-Sep-21 03:33N 31°59' E 120°27'  

Dump ship's entire track history